sensor_id;sensor_type;location;lat;lon;timestamp;temperature;humidity
23083;DHT22;11709;52.420;10.538;2022-09-27T00:01:37;10.90;99.90
23083;DHT22;11709;52.420;10.538;2022-09-27T00:05:39;10.90;99.90
23083;DHT22;11709;52.420;10.538;2022-09-27T00:09:42;10.90;99.90
23083;DHT22;11709;52.420;10.538;2022-09-27T00:13:44;10.80;99.90
23083;DHT22;11709;52.420;10.538;2022-09-27T00:17:47;10.80;99.90
23083;DHT22;11709;52.420;10.538;2022-09-27T00:21:52;10.80;99.90
23083;DHT22;11709;52.420;10.538;2022-09-27T00:25:57;10.80;99.90
23083;DHT22;11709;52.420;10.538;2022-09-27T00:29:59;10.80;99.90
23083;DHT22;11709;52.420;10.538;2022-09-27T00:34:03;10.80;99.90
23083;DHT22;11709;52.420;10.538;2022-09-27T00:38:06;10.80;99.90
23083;DHT22;11709;52.420;10.538;2022-09-27T00:42:12;10.80;99.90
23083;DHT22;11709;52.420;10.538;2022-09-27T00:46:27;10.80;99.90
23083;DHT22;11709;52.420;10.538;2022-09-27T00:50:31;10.80;99.90
23083;DHT22;11709;52.420;10.538;2022-09-27T00:54:37;10.80;99.90
23083;DHT22;11709;52.420;10.538;2022-09-27T00:58:44;10.80;99.90
23083;DHT22;11709;52.420;10.538;2022-09-27T01:02:50;10.70;99.90
23083;DHT22;11709;52.420;10.538;2022-09-27T01:06:52;10.80;99.90
23083;DHT22;11709;52.420;10.538;2022-09-27T01:15:58;10.80;99.90
23083;DHT22;11709;52.420;10.538;2022-09-27T01:32:40;10.80;99.90
23083;DHT22;11709;52.420;10.538;2022-09-27T01:36:48;10.90;99.90
23083;DHT22;11709;52.420;10.538;2022-09-27T01:40:59;10.90;99.90
23083;DHT22;11709;52.420;10.538;2022-09-27T01:49:26;10.90;99.90
23083;DHT22;11709;52.420;10.538;2022-09-27T01:53:29;10.90;99.90
23083;DHT22;11709;52.420;10.538;2022-09-27T01:57:36;10.90;99.90
23083;DHT22;11709;52.420;10.538;2022-09-27T02:01:40;10.90;99.90
23083;DHT22;11709;52.420;10.538;2022-09-27T02:05:51;10.90;99.90
23083;DHT22;11709;52.420;10.538;2022-09-27T02:09:52;10.90;99.90
23083;DHT22;11709;52.420;10.538;2022-09-27T02:14:18;10.90;99.90
23083;DHT22;11709;52.420;10.538;2022-09-27T02:18:24;10.90;99.90
23083;DHT22;11709;52.420;10.538;2022-09-27T02:22:34;11.00;99.90
23083;DHT22;11709;52.420;10.538;2022-09-27T02:26:40;10.90;99.90
23083;DHT22;11709;52.420;10.538;2022-09-27T02:30:43;10.90;99.90
23083;DHT22;11709;52.420;10.538;2022-09-27T02:34:46;11.00;99.90
23083;DHT22;11709;52.420;10.538;2022-09-27T02:38:50;10.90;99.90
23083;DHT22;11709;52.420;10.538;2022-09-27T02:42:53;11.00;99.90
23083;DHT22;11709;52.420;10.538;2022-09-27T02:47:17;11.00;99.90
23083;DHT22;11709;52.420;10.538;2022-09-27T03:00:01;11.00;99.90
23083;DHT22;11709;52.420;10.538;2022-09-27T03:04:10;10.90;99.90
23083;DHT22;11709;52.420;10.538;2022-09-27T03:08:13;10.90;99.90
23083;DHT22;11709;52.420;10.538;2022-09-27T03:12:17;10.90;99.90
23083;DHT22;11709;52.420;10.538;2022-09-27T03:16:22;10.90;99.90
23083;DHT22;11709;52.420;10.538;2022-09-27T03:20:24;10.80;99.90
23083;DHT22;11709;52.420;10.538;2022-09-27T03:24:27;10.80;99.90
23083;DHT22;11709;52.420;10.538;2022-09-27T03:28:29;10.80;99.90
23083;DHT22;11709;52.420;10.538;2022-09-27T03:32:32;10.80;99.90
23083;DHT22;11709;52.420;10.538;2022-09-27T03:36:35;10.70;99.90
23083;DHT22;11709;52.420;10.538;2022-09-27T03:40:37;10.80;99.90
23083;DHT22;11709;52.420;10.538;2022-09-27T03:44:40;10.70;99.90
23083;DHT22;11709;52.420;10.538;2022-09-27T03:48:43;10.70;99.90
23083;DHT22;11709;52.420;10.538;2022-09-27T03:52:46;10.70;99.90
23083;DHT22;11709;52.420;10.538;2022-09-27T03:56:49;10.80;99.90
23083;DHT22;11709;52.420;10.538;2022-09-27T04:00:52;10.80;99.90
23083;DHT22;11709;52.420;10.538;2022-09-27T04:04:54;10.80;99.90
23083;DHT22;11709;52.420;10.538;2022-09-27T04:08:57;10.80;99.90
23083;DHT22;11709;52.420;10.538;2022-09-27T04:12:59;10.70;99.90
23083;DHT22;11709;52.420;10.538;2022-09-27T04:17:02;10.70;99.90
23083;DHT22;11709;52.420;10.538;2022-09-27T04:21:04;10.70;99.90
23083;DHT22;11709;52.420;10.538;2022-09-27T04:25:08;10.70;99.90
23083;DHT22;11709;52.420;10.538;2022-09-27T04:29:11;10.70;99.90
23083;DHT22;11709;52.420;10.538;2022-09-27T04:33:13;10.70;99.90
23083;DHT22;11709;52.420;10.538;2022-09-27T04:37:16;10.60;99.90
23083;DHT22;11709;52.420;10.538;2022-09-27T04:41:19;10.60;99.90
23083;DHT22;11709;52.420;10.538;2022-09-27T04:45:22;10.60;99.90
23083;DHT22;11709;52.420;10.538;2022-09-27T04:49:24;10.60;99.90
23083;DHT22;11709;52.420;10.538;2022-09-27T04:53:28;10.60;99.90
23083;DHT22;11709;52.420;10.538;2022-09-27T04:57:30;10.60;99.90
23083;DHT22;11709;52.420;10.538;2022-09-27T05:01:33;10.70;99.90
23083;DHT22;11709;52.420;10.538;2022-09-27T05:05:35;10.50;99.90
23083;DHT22;11709;52.420;10.538;2022-09-27T05:09:38;10.60;99.90
23083;DHT22;11709;52.420;10.538;2022-09-27T05:13:40;10.50;99.90
23083;DHT22;11709;52.420;10.538;2022-09-27T05:17:43;10.50;99.90
23083;DHT22;11709;52.420;10.538;2022-09-27T05:21:46;10.60;99.90
23083;DHT22;11709;52.420;10.538;2022-09-27T05:25:49;10.50;99.90
23083;DHT22;11709;52.420;10.538;2022-09-27T05:29:52;10.50;99.90
23083;DHT22;11709;52.420;10.538;2022-09-27T05:33:55;10.50;99.90
23083;DHT22;11709;52.420;10.538;2022-09-27T05:37:59;10.60;99.90
23083;DHT22;11709;52.420;10.538;2022-09-27T05:42:01;10.50;99.90
23083;DHT22;11709;52.420;10.538;2022-09-27T05:46:05;10.50;99.90
23083;DHT22;11709;52.420;10.538;2022-09-27T05:50:07;10.50;99.90
23083;DHT22;11709;52.420;10.538;2022-09-27T05:54:10;10.50;99.90
23083;DHT22;11709;52.420;10.538;2022-09-27T05:58:13;10.60;99.90
23083;DHT22;11709;52.420;10.538;2022-09-27T06:02:16;10.60;99.90
23083;DHT22;11709;52.420;10.538;2022-09-27T06:06:19;10.50;99.90
23083;DHT22;11709;52.420;10.538;2022-09-27T06:10:23;10.50;99.90
23083;DHT22;11709;52.420;10.538;2022-09-27T06:14:25;10.50;99.90
23083;DHT22;11709;52.420;10.538;2022-09-27T06:18:28;10.50;99.90
23083;DHT22;11709;52.420;10.538;2022-09-27T06:22:31;10.50;99.90
23083;DHT22;11709;52.420;10.538;2022-09-27T06:26:33;10.40;99.90
23083;DHT22;11709;52.420;10.538;2022-09-27T06:30:40;10.40;99.90
23083;DHT22;11709;52.420;10.538;2022-09-27T06:34:43;10.40;99.90
23083;DHT22;11709;52.420;10.538;2022-09-27T06:38:46;10.40;99.90
23083;DHT22;11709;52.420;10.538;2022-09-27T06:42:49;10.40;99.90
23083;DHT22;11709;52.420;10.538;2022-09-27T06:46:52;10.30;99.90
23083;DHT22;11709;52.420;10.538;2022-09-27T06:50:55;10.30;99.90
23083;DHT22;11709;52.420;10.538;2022-09-27T06:54:58;10.30;99.90
23083;DHT22;11709;52.420;10.538;2022-09-27T06:59:00;10.60;99.90
23083;DHT22;11709;52.420;10.538;2022-09-27T07:03:22;10.30;99.90
23083;DHT22;11709;52.420;10.538;2022-09-27T07:07:28;10.40;99.90
23083;DHT22;11709;52.420;10.538;2022-09-27T07:11:30;10.30;99.90
23083;DHT22;11709;52.420;10.538;2022-09-27T07:15:39;10.40;99.90
23083;DHT22;11709;52.420;10.538;2022-09-27T07:19:39;10.50;99.90
23083;DHT22;11709;52.420;10.538;2022-09-27T07:23:42;10.50;99.90
23083;DHT22;11709;52.420;10.538;2022-09-27T07:27:44;10.60;99.90
23083;DHT22;11709;52.420;10.538;2022-09-27T07:31:47;10.60;99.90
23083;DHT22;11709;52.420;10.538;2022-09-27T07:35:49;10.60;99.90
23083;DHT22;11709;52.420;10.538;2022-09-27T07:39:52;10.60;99.90
23083;DHT22;11709;52.420;10.538;2022-09-27T07:43:56;10.60;99.90
23083;DHT22;11709;52.420;10.538;2022-09-27T07:48:00;10.70;99.90
23083;DHT22;11709;52.420;10.538;2022-09-27T07:52:04;10.70;99.90
23083;DHT22;11709;52.420;10.538;2022-09-27T07:56:06;10.80;99.90
23083;DHT22;11709;52.420;10.538;2022-09-27T08:00:11;10.80;99.90
23083;DHT22;11709;52.420;10.538;2022-09-27T08:04:16;10.80;99.90
23083;DHT22;11709;52.420;10.538;2022-09-27T08:08:19;10.90;99.90
23083;DHT22;11709;52.420;10.538;2022-09-27T08:12:22;10.90;99.90
23083;DHT22;11709;52.420;10.538;2022-09-27T08:16:27;10.80;99.90
23083;DHT22;11709;52.420;10.538;2022-09-27T08:20:29;10.80;99.90
23083;DHT22;11709;52.420;10.538;2022-09-27T08:24:32;10.80;99.90
23083;DHT22;11709;52.420;10.538;2022-09-27T08:28:35;10.80;99.90
23083;DHT22;11709;52.420;10.538;2022-09-27T08:32:37;10.90;99.90
23083;DHT22;11709;52.420;10.538;2022-09-27T08:36:42;10.80;99.90
23083;DHT22;11709;52.420;10.538;2022-09-27T08:41:04;10.80;99.90
23083;DHT22;11709;52.420;10.538;2022-09-27T08:45:15;10.80;99.90
23083;DHT22;11709;52.420;10.538;2022-09-27T08:49:26;10.90;99.90
23083;DHT22;11709;52.420;10.538;2022-09-27T08:53:38;10.90;99.90
23083;DHT22;11709;52.420;10.538;2022-09-27T08:57:41;10.90;99.90
23083;DHT22;11709;52.420;10.538;2022-09-27T09:01:45;10.90;99.90
23083;DHT22;11709;52.420;10.538;2022-09-27T09:06:04;10.90;99.90
23083;DHT22;11709;52.420;10.538;2022-09-27T09:10:28;10.90;99.90
23083;DHT22;11709;52.420;10.538;2022-09-27T09:14:59;10.90;99.90
23083;DHT22;11709;52.420;10.538;2022-09-27T09:19:18;10.70;99.90
23083;DHT22;11709;52.420;10.538;2022-09-27T09:32:00;10.60;99.90
23083;DHT22;11709;52.420;10.538;2022-09-27T09:36:31;10.70;99.90
23083;DHT22;11709;52.420;10.538;2022-09-27T09:40:46;10.60;99.90
23083;DHT22;11709;52.420;10.538;2022-09-27T09:48:59;10.50;99.90
23083;DHT22;11709;52.420;10.538;2022-09-27T09:57:33;10.60;99.90
23083;DHT22;11709;52.420;10.538;2022-09-27T10:01:43;10.90;99.90
23083;DHT22;11709;52.420;10.538;2022-09-27T10:05:52;11.00;99.90
23083;DHT22;11709;52.420;10.538;2022-09-27T10:09:57;11.30;99.90
23083;DHT22;11709;52.420;10.538;2022-09-27T10:14:01;11.50;99.90
23083;DHT22;11709;52.420;10.538;2022-09-27T10:18:04;11.80;99.90
23083;DHT22;11709;52.420;10.538;2022-09-27T10:22:16;11.90;99.90
23083;DHT22;11709;52.420;10.538;2022-09-27T10:26:18;11.90;99.90
23083;DHT22;11709;52.420;10.538;2022-09-27T10:30:28;11.80;99.90
23083;DHT22;11709;52.420;10.538;2022-09-27T10:34:39;11.90;99.90
23083;DHT22;11709;52.420;10.538;2022-09-27T10:38:39;11.90;99.90
23083;DHT22;11709;52.420;10.538;2022-09-27T10:42:43;12.50;99.90
23083;DHT22;11709;52.420;10.538;2022-09-27T10:46:53;13.30;99.90
23083;DHT22;11709;52.420;10.538;2022-09-27T10:51:00;13.00;99.90
23083;DHT22;11709;52.420;10.538;2022-09-27T10:55:07;12.80;99.90
23083;DHT22;11709;52.420;10.538;2022-09-27T10:59:14;12.50;99.90
23083;DHT22;11709;52.420;10.538;2022-09-27T11:03:16;12.30;99.90
23083;DHT22;11709;52.420;10.538;2022-09-27T11:07:21;12.20;99.90
23083;DHT22;11709;52.420;10.538;2022-09-27T11:11:26;12.60;99.90
23083;DHT22;11709;52.420;10.538;2022-09-27T11:15:29;12.60;99.90
23083;DHT22;11709;52.420;10.538;2022-09-27T11:24:05;14.60;99.90
23083;DHT22;11709;52.420;10.538;2022-09-27T11:46:09;15.20;99.90
23083;DHT22;11709;52.420;10.538;2022-09-27T11:51:14;14.70;99.90
23083;DHT22;11709;52.420;10.538;2022-09-27T11:54:46;14.60;99.90
23083;DHT22;11709;52.420;10.538;2022-09-27T11:59:00;13.80;99.90
23083;DHT22;11709;52.420;10.538;2022-09-27T12:03:16;13.30;99.90
23083;DHT22;11709;52.420;10.538;2022-09-27T12:07:20;13.40;99.90
23083;DHT22;11709;52.420;10.538;2022-09-27T12:11:35;13.50;99.90
23083;DHT22;11709;52.420;10.538;2022-09-27T12:15:35;14.10;99.90
23083;DHT22;11709;52.420;10.538;2022-09-27T12:19:41;15.10;99.90
23083;DHT22;11709;52.420;10.538;2022-09-27T12:23:51;15.70;99.90
23083;DHT22;11709;52.420;10.538;2022-09-27T12:28:17;15.50;99.90
23083;DHT22;11709;52.420;10.538;2022-09-27T12:36:24;14.70;99.90
23083;DHT22;11709;52.420;10.538;2022-09-27T12:40:33;14.30;99.90
23083;DHT22;11709;52.420;10.538;2022-09-27T12:44:38;14.00;99.90
23083;DHT22;11709;52.420;10.538;2022-09-27T12:49:05;13.80;99.90
23083;DHT22;11709;52.420;10.538;2022-09-27T12:53:27;13.60;99.90
23083;DHT22;11709;52.420;10.538;2022-09-27T12:57:49;13.20;99.90
23083;DHT22;11709;52.420;10.538;2022-09-27T13:15:32;12.10;99.90
23083;DHT22;11709;52.420;10.538;2022-09-27T13:27:44;11.80;99.90
23083;DHT22;11709;52.420;10.538;2022-09-27T13:36:06;12.10;99.90
23083;DHT22;11709;52.420;10.538;2022-09-27T13:40:23;12.50;99.90
23083;DHT22;11709;52.420;10.538;2022-09-27T13:53:38;12.40;99.90
23083;DHT22;11709;52.420;10.538;2022-09-27T13:57:59;12.40;99.90
23083;DHT22;11709;52.420;10.538;2022-09-27T14:06:33;12.70;99.90
23083;DHT22;11709;52.420;10.538;2022-09-27T14:10:34;13.10;99.90
23083;DHT22;11709;52.420;10.538;2022-09-27T14:14:40;13.00;99.90
23083;DHT22;11709;52.420;10.538;2022-09-27T14:18:46;12.80;99.90
23083;DHT22;11709;52.420;10.538;2022-09-27T14:22:54;12.80;99.90
23083;DHT22;11709;52.420;10.538;2022-09-27T14:31:24;12.40;99.90
23083;DHT22;11709;52.420;10.538;2022-09-27T14:35:28;12.50;99.90
23083;DHT22;11709;52.420;10.538;2022-09-27T14:39:55;12.50;99.90
23083;DHT22;11709;52.420;10.538;2022-09-27T14:43:58;12.60;99.90
23083;DHT22;11709;52.420;10.538;2022-09-27T14:48:00;12.60;99.90
23083;DHT22;11709;52.420;10.538;2022-09-27T14:52:13;12.70;99.90
23083;DHT22;11709;52.420;10.538;2022-09-27T14:56:16;12.60;99.90
23083;DHT22;11709;52.420;10.538;2022-09-27T15:00:24;12.60;99.90
23083;DHT22;11709;52.420;10.538;2022-09-27T15:04:29;12.50;99.90
23083;DHT22;11709;52.420;10.538;2022-09-27T15:08:33;12.40;99.90
23083;DHT22;11709;52.420;10.538;2022-09-27T15:12:36;12.10;99.90
23083;DHT22;11709;52.420;10.538;2022-09-27T15:16:39;12.10;99.90
23083;DHT22;11709;52.420;10.538;2022-09-27T15:20:51;12.00;99.90
23083;DHT22;11709;52.420;10.538;2022-09-27T15:24:48;11.80;99.90
23083;DHT22;11709;52.420;10.538;2022-09-27T15:28:51;11.80;99.90
23083;DHT22;11709;52.420;10.538;2022-09-27T15:32:55;11.70;99.90
23083;DHT22;11709;52.420;10.538;2022-09-27T15:37:02;11.40;99.90
23083;DHT22;11709;52.420;10.538;2022-09-27T15:41:11;11.10;99.90
23083;DHT22;11709;52.420;10.538;2022-09-27T15:45:29;10.90;99.90
23083;DHT22;11709;52.420;10.538;2022-09-27T15:49:32;10.60;99.90
23083;DHT22;11709;52.420;10.538;2022-09-27T15:53:40;10.50;99.90
23083;DHT22;11709;52.420;10.538;2022-09-27T15:57:46;10.40;99.90
23083;DHT22;11709;52.420;10.538;2022-09-27T16:01:48;10.30;99.90
23083;DHT22;11709;52.420;10.538;2022-09-27T16:05:56;10.30;99.90
23083;DHT22;11709;52.420;10.538;2022-09-27T16:09:59;10.30;99.90
23083;DHT22;11709;52.420;10.538;2022-09-27T16:14:01;10.20;99.90
23083;DHT22;11709;52.420;10.538;2022-09-27T16:18:04;10.20;99.90
23083;DHT22;11709;52.420;10.538;2022-09-27T16:22:06;10.20;99.90
23083;DHT22;11709;52.420;10.538;2022-09-27T16:26:09;10.10;99.90
23083;DHT22;11709;52.420;10.538;2022-09-27T16:30:12;10.10;99.90
23083;DHT22;11709;52.420;10.538;2022-09-27T16:34:15;10.10;99.90
23083;DHT22;11709;52.420;10.538;2022-09-27T16:38:17;10.00;99.90
23083;DHT22;11709;52.420;10.538;2022-09-27T16:42:20;9.80;99.90
23083;DHT22;11709;52.420;10.538;2022-09-27T16:46:22;9.90;99.90
23083;DHT22;11709;52.420;10.538;2022-09-27T16:50:25;9.90;99.90
23083;DHT22;11709;52.420;10.538;2022-09-27T16:54:46;9.80;99.90
23083;DHT22;11709;52.420;10.538;2022-09-27T16:58:48;9.70;99.90
23083;DHT22;11709;52.420;10.538;2022-09-27T17:02:51;9.60;99.90
23083;DHT22;11709;52.420;10.538;2022-09-27T17:06:55;9.60;99.90
23083;DHT22;11709;52.420;10.538;2022-09-27T17:10:58;9.50;99.90
23083;DHT22;11709;52.420;10.538;2022-09-27T17:15:01;9.40;99.90
23083;DHT22;11709;52.420;10.538;2022-09-27T17:19:03;9.40;99.90
23083;DHT22;11709;52.420;10.538;2022-09-27T17:23:06;9.30;99.90
23083;DHT22;11709;52.420;10.538;2022-09-27T17:27:08;9.30;99.90
23083;DHT22;11709;52.420;10.538;2022-09-27T17:31:12;9.30;99.90
23083;DHT22;11709;52.420;10.538;2022-09-27T17:35:16;9.30;99.90
23083;DHT22;11709;52.420;10.538;2022-09-27T17:39:19;9.30;99.90
23083;DHT22;11709;52.420;10.538;2022-09-27T17:43:22;9.30;99.90
23083;DHT22;11709;52.420;10.538;2022-09-27T17:47:26;9.30;99.90
23083;DHT22;11709;52.420;10.538;2022-09-27T17:51:49;9.30;99.90
23083;DHT22;11709;52.420;10.538;2022-09-27T17:55:52;9.30;99.90
23083;DHT22;11709;52.420;10.538;2022-09-27T17:59:56;9.20;99.90
23083;DHT22;11709;52.420;10.538;2022-09-27T18:03:59;9.20;99.90
23083;DHT22;11709;52.420;10.538;2022-09-27T18:08:02;9.20;99.90
23083;DHT22;11709;52.420;10.538;2022-09-27T18:12:05;9.30;99.90
23083;DHT22;11709;52.420;10.538;2022-09-27T18:16:15;9.20;99.90
23083;DHT22;11709;52.420;10.538;2022-09-27T18:20:14;9.20;99.90
23083;DHT22;11709;52.420;10.538;2022-09-27T18:24:16;9.20;99.90
23083;DHT22;11709;52.420;10.538;2022-09-27T18:28:19;9.30;99.90
23083;DHT22;11709;52.420;10.538;2022-09-27T18:32:21;9.40;99.90
23083;DHT22;11709;52.420;10.538;2022-09-27T18:36:26;9.20;99.90
23083;DHT22;11709;52.420;10.538;2022-09-27T18:40:28;9.30;99.90
23083;DHT22;11709;52.420;10.538;2022-09-27T18:44:31;9.30;99.90
23083;DHT22;11709;52.420;10.538;2022-09-27T18:48:35;9.30;99.90
23083;DHT22;11709;52.420;10.538;2022-09-27T18:52:37;9.30;99.90
23083;DHT22;11709;52.420;10.538;2022-09-27T18:56:40;9.30;99.90
23083;DHT22;11709;52.420;10.538;2022-09-27T19:00:43;9.30;99.90
23083;DHT22;11709;52.420;10.538;2022-09-27T19:04:45;9.20;99.90
23083;DHT22;11709;52.420;10.538;2022-09-27T19:08:53;9.20;99.90
23083;DHT22;11709;52.420;10.538;2022-09-27T19:12:56;9.20;99.90
23083;DHT22;11709;52.420;10.538;2022-09-27T19:16:58;9.20;99.90
23083;DHT22;11709;52.420;10.538;2022-09-27T19:21:09;9.20;99.90
23083;DHT22;11709;52.420;10.538;2022-09-27T19:25:12;9.20;99.90
23083;DHT22;11709;52.420;10.538;2022-09-27T19:29:14;9.20;99.90
23083;DHT22;11709;52.420;10.538;2022-09-27T19:33:17;9.20;99.90
23083;DHT22;11709;52.420;10.538;2022-09-27T19:37:20;9.20;99.90
23083;DHT22;11709;52.420;10.538;2022-09-27T19:41:22;9.20;99.90
23083;DHT22;11709;52.420;10.538;2022-09-27T19:45:25;9.20;99.90
23083;DHT22;11709;52.420;10.538;2022-09-27T19:49:27;9.20;99.90
23083;DHT22;11709;52.420;10.538;2022-09-27T19:53:31;9.20;99.90
23083;DHT22;11709;52.420;10.538;2022-09-27T19:57:34;9.20;99.90
23083;DHT22;11709;52.420;10.538;2022-09-27T20:01:36;9.30;99.90
23083;DHT22;11709;52.420;10.538;2022-09-27T20:05:40;9.20;99.90
23083;DHT22;11709;52.420;10.538;2022-09-27T20:09:43;9.20;99.90
23083;DHT22;11709;52.420;10.538;2022-09-27T20:13:46;9.20;99.90
23083;DHT22;11709;52.420;10.538;2022-09-27T20:17:50;9.20;99.90
23083;DHT22;11709;52.420;10.538;2022-09-27T20:21:53;9.20;99.90
23083;DHT22;11709;52.420;10.538;2022-09-27T20:26:00;9.20;99.90
23083;DHT22;11709;52.420;10.538;2022-09-27T20:30:02;9.10;99.90
23083;DHT22;11709;52.420;10.538;2022-09-27T20:34:12;9.10;99.90
23083;DHT22;11709;52.420;10.538;2022-09-27T20:38:15;9.10;99.90
23083;DHT22;11709;52.420;10.538;2022-09-27T20:42:19;9.00;99.90
23083;DHT22;11709;52.420;10.538;2022-09-27T20:46:23;9.00;99.90
23083;DHT22;11709;52.420;10.538;2022-09-27T20:50:25;9.00;99.90
23083;DHT22;11709;52.420;10.538;2022-09-27T20:54:28;9.00;99.90
23083;DHT22;11709;52.420;10.538;2022-09-27T20:58:31;8.90;99.90
23083;DHT22;11709;52.420;10.538;2022-09-27T21:02:33;9.00;99.90
23083;DHT22;11709;52.420;10.538;2022-09-27T21:06:36;8.90;99.90
23083;DHT22;11709;52.420;10.538;2022-09-27T21:10:39;8.90;99.90
23083;DHT22;11709;52.420;10.538;2022-09-27T21:14:41;8.90;99.90
23083;DHT22;11709;52.420;10.538;2022-09-27T21:18:44;8.90;99.90
23083;DHT22;11709;52.420;10.538;2022-09-27T21:22:46;9.00;99.90
23083;DHT22;11709;52.420;10.538;2022-09-27T21:26:49;9.00;99.90
23083;DHT22;11709;52.420;10.538;2022-09-27T21:30:51;9.00;99.90
23083;DHT22;11709;52.420;10.538;2022-09-27T21:34:53;9.00;99.90
23083;DHT22;11709;52.420;10.538;2022-09-27T21:38:56;9.00;99.90
23083;DHT22;11709;52.420;10.538;2022-09-27T21:42:59;9.10;99.90
23083;DHT22;11709;52.420;10.538;2022-09-27T21:47:02;9.10;99.90
23083;DHT22;11709;52.420;10.538;2022-09-27T21:51:17;9.10;99.90
23083;DHT22;11709;52.420;10.538;2022-09-27T21:55:15;9.10;99.90
23083;DHT22;11709;52.420;10.538;2022-09-27T21:59:18;9.20;99.90
23083;DHT22;11709;52.420;10.538;2022-09-27T22:03:20;9.10;99.90
23083;DHT22;11709;52.420;10.538;2022-09-27T22:07:23;9.20;99.90
23083;DHT22;11709;52.420;10.538;2022-09-27T22:11:33;9.20;99.90
23083;DHT22;11709;52.420;10.538;2022-09-27T22:15:33;9.20;99.90
23083;DHT22;11709;52.420;10.538;2022-09-27T22:19:36;9.20;99.90
23083;DHT22;11709;52.420;10.538;2022-09-27T22:23:39;9.30;99.90
23083;DHT22;11709;52.420;10.538;2022-09-27T22:27:42;9.30;99.90
23083;DHT22;11709;52.420;10.538;2022-09-27T22:31:44;9.30;99.90
23083;DHT22;11709;52.420;10.538;2022-09-27T22:35:48;9.30;99.90
23083;DHT22;11709;52.420;10.538;2022-09-27T22:39:50;9.20;99.90
23083;DHT22;11709;52.420;10.538;2022-09-27T22:43:53;9.30;99.90
23083;DHT22;11709;52.420;10.538;2022-09-27T22:47:55;9.30;99.90
23083;DHT22;11709;52.420;10.538;2022-09-27T22:51:58;9.30;99.90
23083;DHT22;11709;52.420;10.538;2022-09-27T22:56:02;9.30;99.90
23083;DHT22;11709;52.420;10.538;2022-09-27T23:00:06;9.30;99.90
23083;DHT22;11709;52.420;10.538;2022-09-27T23:04:08;9.30;99.90
23083;DHT22;11709;52.420;10.538;2022-09-27T23:08:11;9.30;99.90
23083;DHT22;11709;52.420;10.538;2022-09-27T23:12:13;9.30;99.90
23083;DHT22;11709;52.420;10.538;2022-09-27T23:16:20;9.30;99.90
23083;DHT22;11709;52.420;10.538;2022-09-27T23:20:26;9.30;99.90
23083;DHT22;11709;52.420;10.538;2022-09-27T23:24:30;9.30;99.90
23083;DHT22;11709;52.420;10.538;2022-09-27T23:28:33;9.30;99.90
23083;DHT22;11709;52.420;10.538;2022-09-27T23:32:36;9.20;99.90
23083;DHT22;11709;52.420;10.538;2022-09-27T23:36:38;9.30;99.90
23083;DHT22;11709;52.420;10.538;2022-09-27T23:40:41;9.30;99.90
23083;DHT22;11709;52.420;10.538;2022-09-27T23:44:44;9.30;99.90
23083;DHT22;11709;52.420;10.538;2022-09-27T23:48:46;9.30;99.90
23083;DHT22;11709;52.420;10.538;2022-09-27T23:52:49;9.30;99.90
23083;DHT22;11709;52.420;10.538;2022-09-27T23:56:51;9.30;99.90
